createdAt,value
2017-06-09T00:00:29.016Z,5.84
2017-06-09T00:02:57.405Z,4.88
2017-06-09T00:05:25.739Z,6.04
2017-06-09T00:07:54.159Z,5.00
2017-06-09T00:10:22.468Z,4.88
2017-06-09T00:12:50.856Z,5.26
2017-06-09T00:15:19.163Z,5.18
2017-06-09T00:17:47.607Z,5.20
2017-06-09T00:20:15.911Z,6.70
2017-06-09T00:22:45.152Z,5.98
2017-06-09T00:25:13.480Z,5.30
2017-06-09T00:27:41.808Z,5.70
2017-06-09T00:30:10.154Z,4.86
2017-06-09T00:32:38.468Z,5.28
2017-06-09T00:35:06.840Z,5.20
2017-06-09T00:37:35.239Z,4.82
2017-06-09T00:40:03.548Z,5.50
2017-06-09T00:42:31.962Z,5.46
2017-06-09T00:45:00.271Z,4.94
2017-06-09T00:47:28.575Z,4.92
2017-06-09T00:49:56.911Z,5.86
2017-06-09T00:52:25.219Z,5.38
2017-06-09T00:54:53.580Z,5.24
2017-06-09T00:57:21.891Z,5.04
2017-06-09T00:59:50.203Z,4.80
2017-06-09T01:02:18.531Z,4.98
2017-06-09T01:04:46.843Z,5.50
2017-06-09T01:07:15.199Z,5.28
2017-06-09T01:09:43.503Z,4.96
2017-06-09T01:12:11.905Z,4.80
2017-06-09T01:14:40.236Z,4.74
2017-06-09T01:17:08.555Z,5.02
2017-06-09T01:19:36.921Z,5.02
2017-06-09T01:22:05.308Z,5.08
2017-06-09T01:24:33.615Z,4.78
2017-06-09T01:27:01.980Z,4.60
2017-06-09T01:29:30.305Z,4.92
2017-06-09T01:31:58.671Z,4.30
2017-06-09T01:34:26.992Z,4.96
2017-06-09T01:36:55.304Z,4.60
2017-06-09T01:39:23.639Z,5.18
2017-06-09T01:41:52.031Z,5.32
2017-06-09T01:44:20.497Z,5.32
2017-06-09T01:46:48.855Z,5.50
2017-06-09T01:49:17.212Z,5.24
2017-06-09T01:51:45.595Z,5.40
2017-06-09T01:54:13.966Z,5.12
2017-06-09T01:56:42.380Z,4.38
2017-06-09T01:59:10.738Z,4.74
2017-06-09T02:01:39.103Z,4.86
2017-06-09T02:04:07.495Z,5.20
2017-06-09T02:06:35.851Z,5.22
2017-06-09T02:09:04.258Z,4.66
2017-06-09T02:11:32.615Z,5.24
2017-06-09T02:14:00.990Z,4.94
2017-06-09T02:16:29.375Z,5.04
2017-06-09T02:18:57.747Z,5.50
2017-06-09T02:21:26.163Z,4.80
2017-06-09T02:23:54.518Z,5.00
2017-06-09T02:26:22.880Z,5.08
2017-06-09T02:28:51.282Z,5.02
2017-06-09T02:31:19.646Z,4.78
2017-06-09T02:33:48.012Z,5.38
2017-06-09T02:36:16.390Z,5.58
2017-06-09T02:38:44.766Z,5.22
2017-06-09T02:41:13.139Z,5.06
2017-06-09T02:43:41.523Z,5.40
2017-06-09T02:46:09.882Z,5.68
2017-06-09T02:48:38.331Z,5.34
2017-06-09T02:51:06.695Z,5.10
2017-06-09T02:53:35.054Z,5.18
2017-06-09T02:56:03.434Z,4.94
2017-06-09T02:58:31.078Z,5.00
2017-06-09T03:00:59.487Z,5.82
2017-06-09T03:03:27.839Z,4.80
2017-06-09T03:05:56.199Z,4.92
2017-06-09T03:08:24.610Z,5.82
2017-06-09T03:10:52.973Z,5.60
2017-06-09T03:13:21.379Z,5.26
2017-06-09T03:15:49.742Z,5.90
2017-06-09T03:18:18.118Z,5.54
2017-06-09T03:20:46.498Z,5.20
2017-06-09T03:23:14.947Z,4.84
2017-06-09T03:25:43.359Z,5.66
2017-06-09T03:28:11.726Z,5.00
2017-06-09T03:30:40.078Z,5.00
2017-06-09T03:33:08.455Z,5.40
2017-06-09T03:35:36.814Z,5.00
2017-06-09T03:38:05.270Z,4.96
2017-06-09T03:40:33.630Z,5.42
2017-06-09T03:43:01.996Z,5.68
2017-06-09T03:45:30.378Z,5.12
2017-06-09T03:47:58.754Z,5.18
2017-06-09T03:50:27.143Z,5.68
2017-06-09T03:52:55.624Z,5.10
2017-06-09T03:55:23.987Z,4.68
2017-06-09T03:57:52.386Z,5.00
2017-06-09T04:00:20.752Z,5.60
2017-06-09T04:02:49.150Z,5.38
2017-06-09T04:05:17.509Z,5.22
2017-06-09T04:07:45.934Z,5.20
2017-06-09T04:10:14.316Z,5.30
2017-06-09T04:12:42.679Z,5.38
2017-06-09T04:15:11.064Z,5.38
2017-06-09T04:17:39.430Z,5.16
2017-06-09T04:20:07.794Z,5.46
2017-06-09T04:22:36.191Z,5.22
2017-06-09T04:25:04.559Z,5.20
2017-06-09T04:27:33.059Z,5.94
2017-06-09T04:30:01.430Z,5.50
2017-06-09T04:32:29.790Z,4.86
2017-06-09T04:34:58.174Z,5.22
2017-06-09T04:37:26.538Z,4.92
2017-06-09T04:39:54.164Z,5.38
2017-06-09T04:42:22.522Z,5.02
2017-06-09T04:44:50.878Z,5.08
2017-06-09T04:47:19.254Z,5.24
2017-06-09T04:49:47.619Z,4.78
2017-06-09T04:52:16.035Z,4.52
2017-06-09T04:54:44.390Z,4.66
2017-06-09T04:57:12.750Z,5.30
2017-06-09T04:59:41.125Z,4.80
2017-06-09T05:02:09.505Z,4.94
2017-06-09T05:04:37.899Z,4.92
2017-06-09T05:07:06.264Z,4.66
2017-06-09T05:09:34.634Z,4.20
2017-06-09T05:12:03.011Z,4.40
2017-06-09T05:14:31.390Z,4.66
2017-06-09T05:16:59.774Z,4.36
2017-06-09T05:19:28.150Z,4.30
2017-06-09T05:21:56.506Z,4.70
2017-06-09T05:24:24.890Z,4.30
2017-06-09T05:26:53.246Z,4.42
2017-06-09T05:29:21.628Z,4.72
2017-06-09T05:31:49.982Z,4.52
2017-06-09T05:34:18.422Z,5.28
2017-06-09T05:36:46.802Z,5.00
2017-06-09T05:39:15.190Z,4.72
2017-06-09T05:41:43.571Z,4.64
2017-06-09T05:44:11.931Z,4.60
2017-06-09T05:46:40.286Z,4.78
2017-06-09T05:49:08.672Z,4.38
2017-06-09T05:51:37.032Z,4.90
2017-06-09T05:54:05.424Z,4.64
2017-06-09T05:56:33.779Z,4.80
2017-06-09T05:59:02.147Z,4.60
2017-06-09T06:01:30.522Z,4.30
2017-06-09T06:03:58.886Z,4.96
2017-06-09T06:06:27.283Z,5.04
2017-06-09T06:08:55.643Z,4.54
2017-06-09T06:11:23.230Z,5.42
2017-06-09T06:13:51.607Z,4.72
2017-06-09T06:16:19.964Z,4.54
2017-06-09T06:18:48.342Z,5.04
2017-06-09T06:21:16.698Z,5.10
2017-06-09T06:23:45.057Z,5.10
2017-06-09T06:26:13.448Z,11.30
2017-06-09T06:28:41.806Z,8.14
2017-06-09T06:31:10.186Z,6.60
2017-06-09T06:33:38.538Z,7.24
2017-06-09T06:36:06.890Z,7.36
2017-06-09T06:38:35.268Z,6.00
2017-06-09T06:41:03.646Z,5.56
2017-06-09T06:43:32.045Z,5.68
2017-06-09T06:46:00.398Z,5.78
2017-06-09T06:48:28.764Z,5.16
2017-06-09T06:50:57.138Z,6.60
2017-06-09T06:53:25.500Z,6.42
2017-06-09T06:55:53.914Z,5.68
2017-06-09T06:58:22.273Z,6.20
2017-06-09T07:00:50.626Z,6.50
2017-06-09T07:03:19.004Z,5.76
2017-06-09T07:05:47.379Z,5.16
2017-06-09T07:08:15.767Z,4.80
2017-06-09T07:10:44.122Z,3.90
2017-06-09T07:13:12.478Z,4.40
2017-06-09T07:15:40.856Z,4.26
2017-06-09T07:18:09.206Z,3.82
2017-06-09T07:20:37.614Z,4.10
2017-06-09T07:23:05.971Z,3.70
2017-06-09T07:25:34.327Z,4.12
2017-06-09T07:28:02.703Z,3.08
2017-06-09T07:30:31.058Z,3.42
2017-06-09T07:32:59.458Z,3.38
2017-06-09T07:35:27.820Z,3.88
2017-06-09T07:37:56.178Z,3.32
2017-06-09T07:40:24.555Z,5.10
2017-06-09T07:42:52.907Z,3.68
2017-06-09T07:45:21.316Z,3.68
2017-06-09T07:47:49.669Z,3.90
2017-06-09T07:50:18.027Z,6.26
2017-06-09T07:52:46.401Z,8.70
2017-06-09T07:55:14.775Z,7.92
2017-06-09T07:57:43.190Z,7.72
2017-06-09T08:00:11.542Z,4.56
2017-06-09T08:02:39.895Z,3.52
2017-06-09T08:05:08.271Z,2.92
2017-06-09T08:07:36.635Z,4.74
2017-06-09T08:10:05.028Z,7.22
2017-06-09T08:12:33.390Z,7.22
2017-06-09T08:15:01.754Z,15.30
2017-06-09T08:17:30.139Z,11.82
2017-06-09T08:19:58.499Z,10.78
2017-06-09T08:22:26.895Z,14.48
2017-06-09T08:24:55.258Z,16.02
2017-06-09T08:27:23.656Z,18.62
2017-06-09T08:29:52.018Z,17.62
2017-06-09T08:32:20.390Z,20.30
2017-06-09T08:34:48.772Z,39.74
2017-06-09T08:37:17.135Z,15.82
2017-06-09T08:39:45.515Z,9.28
2017-06-09T08:42:13.867Z,9.68
2017-06-09T08:44:42.306Z,13.58
2017-06-09T08:47:10.670Z,19.44
2017-06-09T08:49:39.031Z,23.50
2017-06-09T08:52:07.408Z,6.96
2017-06-09T08:54:35.762Z,6.02
2017-06-09T08:57:04.166Z,10.30
2017-06-09T08:59:32.556Z,10.16
2017-06-09T09:02:00.966Z,8.16
2017-06-09T09:04:29.331Z,9.68
2017-06-09T09:06:57.690Z,8.82
2017-06-09T09:09:26.066Z,6.30
2017-06-09T09:11:54.423Z,7.72
2017-06-09T09:14:23.726Z,7.30
2017-06-09T09:16:52.083Z,5.94
2017-06-09T09:19:20.487Z,5.20
2017-06-09T09:21:48.847Z,3.78
2017-06-09T09:24:17.206Z,3.70
2017-06-09T09:26:45.587Z,3.78
2017-06-09T09:29:13.994Z,5.78
2017-06-09T09:31:42.383Z,7.40
2017-06-09T09:34:10.748Z,5.20
2017-06-09T09:36:39.147Z,4.30
2017-06-09T09:39:07.508Z,6.06
2017-06-09T09:41:35.874Z,3.90
2017-06-09T09:44:04.279Z,2.70
2017-06-09T09:46:32.648Z,2.48
2017-06-09T09:49:01.038Z,2.40
2017-06-09T09:51:29.402Z,2.46
2017-06-09T09:53:57.831Z,2.32
2017-06-09T09:56:26.191Z,3.00
2017-06-09T09:58:54.163Z,2.10
2017-06-09T10:01:21.802Z,2.36
2017-06-09T10:03:50.167Z,1.96
2017-06-09T10:06:18.549Z,3.32
2017-06-09T10:08:46.916Z,2.48
2017-06-09T10:11:15.326Z,2.48
2017-06-09T10:13:43.687Z,2.18
2017-06-09T10:16:12.051Z,2.12
2017-06-09T10:18:40.446Z,2.62
2017-06-09T10:21:08.814Z,2.38
2017-06-09T10:23:37.207Z,2.68
2017-06-09T10:26:05.566Z,2.82
2017-06-09T10:28:33.995Z,2.44
2017-06-09T10:31:02.357Z,2.50
2017-06-09T10:33:30.798Z,2.52
2017-06-09T10:35:59.182Z,2.20
2017-06-09T10:38:27.562Z,2.40
2017-06-09T10:40:55.946Z,2.40
2017-06-09T10:43:24.318Z,2.50
2017-06-09T10:45:52.710Z,2.38
2017-06-09T10:48:21.185Z,2.10
2017-06-09T10:50:49.548Z,2.34
2017-06-09T10:53:17.935Z,2.34
2017-06-09T10:55:46.296Z,2.20
2017-06-09T10:58:14.674Z,2.14
2017-06-09T11:00:43.035Z,2.30
2017-06-09T11:03:11.513Z,2.20
2017-06-09T11:05:39.866Z,2.50
2017-06-09T11:08:08.232Z,2.06
2017-06-09T11:10:36.614Z,1.84
2017-06-09T11:13:04.978Z,2.04
2017-06-09T11:15:33.363Z,2.00
2017-06-09T11:18:01.724Z,2.22
2017-06-09T11:20:30.111Z,2.20
2017-06-09T11:22:58.474Z,2.40
2017-06-09T11:25:26.835Z,2.10
2017-06-09T11:27:54.458Z,1.80
2017-06-09T11:30:22.816Z,2.30
2017-06-09T11:32:51.197Z,2.04
2017-06-09T11:35:19.558Z,1.96
2017-06-09T11:37:47.949Z,2.04
2017-06-09T11:40:16.311Z,2.26
2017-06-09T11:42:44.679Z,2.12
2017-06-09T11:45:13.062Z,2.10
2017-06-09T11:47:41.422Z,2.18
2017-06-09T11:50:11.781Z,1.96
2017-06-09T11:52:40.143Z,2.30
2017-06-09T11:55:08.534Z,2.22
2017-06-09T11:57:36.932Z,2.24
2017-06-09T12:00:05.298Z,2.02
2017-06-09T12:02:33.678Z,2.12
2017-06-09T12:05:02.034Z,2.02
2017-06-09T12:07:30.406Z,2.10
2017-06-09T12:09:58.818Z,2.42
2017-06-09T12:12:27.188Z,3.58
2017-06-09T12:14:55.667Z,2.76
2017-06-09T12:17:24.070Z,2.12
2017-06-09T12:19:52.557Z,2.80
2017-06-09T12:22:20.914Z,2.80
2017-06-09T12:24:49.275Z,3.02
2017-06-09T12:27:17.667Z,2.96
2017-06-09T12:29:46.026Z,3.22
2017-06-09T12:32:14.410Z,3.44
2017-06-09T12:34:42.894Z,3.22
2017-06-09T12:37:11.256Z,3.50
2017-06-09T12:39:39.676Z,3.26
2017-06-09T12:42:08.050Z,3.24
2017-06-09T12:44:36.434Z,3.56
2017-06-09T12:47:04.794Z,3.18
2017-06-09T12:49:33.155Z,3.54
2017-06-09T12:52:01.538Z,3.90
2017-06-09T12:54:29.918Z,3.42
2017-06-09T12:56:58.301Z,4.06
2017-06-09T12:59:26.660Z,3.50
2017-06-09T13:01:55.052Z,3.62
2017-06-09T13:04:24.447Z,3.92
2017-06-09T13:06:52.815Z,3.88
2017-06-09T13:09:21.191Z,4.14
2017-06-09T13:11:49.562Z,3.88
2017-06-09T13:14:17.975Z,3.72
2017-06-09T13:16:46.332Z,3.50
2017-06-09T13:19:14.767Z,3.36
2017-06-09T13:21:43.125Z,4.24
2017-06-09T13:24:11.491Z,3.68
2017-06-09T13:26:39.887Z,4.14
2017-06-09T13:29:08.269Z,3.80
2017-06-09T13:31:36.654Z,3.66
2017-06-09T13:34:05.014Z,3.46
2017-06-09T13:36:33.423Z,3.94
2017-06-09T13:39:01.784Z,3.72
2017-06-09T13:41:30.146Z,3.18
2017-06-09T13:43:58.529Z,3.22
2017-06-09T13:46:26.890Z,3.40
2017-06-09T13:48:55.271Z,3.64
2017-06-09T13:51:23.635Z,4.18
2017-06-09T13:53:52.017Z,3.22
2017-06-09T13:56:20.390Z,3.04
2017-06-09T13:58:48.754Z,3.64
2017-06-09T14:01:17.150Z,3.22
2017-06-09T14:03:45.523Z,3.66
2017-06-09T14:06:13.906Z,3.56
2017-06-09T14:08:42.266Z,3.30
2017-06-09T14:11:10.660Z,3.66
2017-06-09T14:13:39.018Z,3.50
2017-06-09T14:16:07.419Z,3.50
2017-06-09T14:18:35.800Z,3.50
2017-06-09T14:21:04.190Z,3.18
2017-06-09T14:23:32.592Z,3.88
2017-06-09T14:26:00.952Z,3.50
2017-06-09T14:28:29.334Z,3.34
2017-06-09T14:30:57.699Z,3.16
2017-06-09T14:33:26.071Z,9.76
2017-06-09T14:35:54.470Z,4.84
2017-06-09T14:38:22.842Z,13.34
2017-06-09T14:40:51.230Z,48.90
2017-06-09T14:43:19.591Z,4.78
2017-06-09T14:45:48.022Z,11.36
2017-06-09T14:48:16.382Z,8.90
2017-06-09T14:50:44.748Z,3.16
2017-06-09T14:53:13.135Z,4.50
2017-06-09T14:55:41.496Z,4.00
2017-06-09T14:58:09.885Z,3.18
2017-06-09T15:00:38.246Z,2.72
2017-06-09T15:03:06.654Z,3.02
2017-06-09T15:05:35.023Z,3.00
2017-06-09T15:08:03.378Z,3.28
2017-06-09T15:10:31.778Z,3.30
2017-06-09T15:13:00.154Z,3.48
2017-06-09T15:15:28.538Z,3.38
2017-06-09T15:17:56.899Z,3.64
2017-06-09T15:20:25.314Z,3.50
2017-06-09T15:22:53.672Z,3.50
2017-06-09T15:25:22.038Z,3.38
2017-06-09T15:27:50.414Z,3.30
2017-06-09T15:30:18.781Z,2.96
2017-06-09T15:32:47.169Z,3.14
2017-06-09T15:35:15.538Z,3.40
2017-06-09T15:37:43.931Z,2.98
2017-06-09T15:40:12.286Z,3.06
2017-06-09T15:42:40.643Z,2.80
2017-06-09T15:45:09.037Z,3.38
2017-06-09T15:47:37.424Z,2.92
2017-06-09T15:50:05.847Z,3.26
2017-06-09T15:52:34.202Z,3.10
2017-06-09T15:55:02.606Z,3.68
2017-06-09T15:57:30.970Z,3.22
2017-06-09T15:59:59.342Z,3.20
2017-06-09T16:02:27.722Z,3.32
2017-06-09T16:04:56.102Z,3.04
2017-06-09T16:07:24.483Z,3.26
2017-06-09T16:09:52.845Z,3.12
2017-06-09T16:12:21.232Z,4.30
2017-06-09T16:14:49.594Z,3.14
2017-06-09T16:17:17.958Z,3.70
2017-06-09T16:19:46.342Z,2.88
2017-06-09T16:22:14.703Z,2.70
2017-06-09T16:24:43.094Z,2.90
2017-06-09T16:27:11.454Z,2.60
2017-06-09T16:29:39.867Z,3.10
2017-06-09T16:32:08.231Z,4.30
2017-06-09T16:34:36.596Z,3.20
2017-06-09T16:37:04.979Z,3.02
2017-06-09T16:39:34.302Z,3.04
2017-06-09T16:42:02.686Z,2.96
2017-06-09T16:44:31.082Z,2.78
2017-06-09T16:46:59.483Z,2.90
2017-06-09T16:49:27.843Z,3.08
2017-06-09T16:51:56.206Z,3.00
2017-06-09T16:54:24.598Z,2.82
2017-06-09T16:56:52.958Z,2.72
2017-06-09T16:59:21.351Z,2.82
2017-06-09T17:01:49.712Z,3.12
2017-06-09T17:04:18.123Z,3.06
2017-06-09T17:06:46.481Z,3.40
2017-06-09T17:09:14.846Z,3.20
2017-06-09T17:11:43.222Z,2.94
2017-06-09T17:14:11.598Z,2.88
2017-06-09T17:16:39.983Z,2.76
2017-06-09T17:19:08.347Z,2.96
2017-06-09T17:21:36.738Z,3.08
2017-06-09T17:24:05.138Z,2.62
2017-06-09T17:26:33.501Z,2.70
2017-06-09T17:29:01.886Z,2.84
2017-06-09T17:31:30.247Z,3.04
2017-06-09T17:33:58.642Z,2.90
2017-06-09T17:36:27.006Z,3.14
2017-06-09T17:38:55.427Z,3.78
2017-06-09T17:41:23.796Z,3.58
2017-06-09T17:43:52.152Z,3.08
2017-06-09T17:46:20.538Z,3.16
2017-06-09T17:48:48.894Z,2.94
2017-06-09T17:51:17.283Z,3.20
2017-06-09T17:53:45.651Z,3.40
2017-06-09T17:56:14.038Z,2.80
2017-06-09T17:58:42.448Z,3.60
2017-06-09T18:01:10.870Z,2.50
2017-06-09T18:03:39.247Z,4.04
2017-06-09T18:06:06.842Z,3.34
2017-06-09T18:08:35.241Z,2.72
2017-06-09T18:11:03.601Z,4.38
2017-06-09T18:13:32.001Z,4.38
2017-06-09T18:16:00.382Z,3.12
2017-06-09T18:18:28.747Z,2.90
2017-06-09T18:20:57.150Z,2.90
2017-06-09T18:23:25.515Z,2.90
2017-06-09T18:25:53.230Z,2.70
2017-06-09T18:28:21.614Z,2.92
2017-06-09T18:30:50.017Z,2.68
2017-06-09T18:33:18.383Z,3.48
2017-06-09T18:35:46.746Z,2.60
2017-06-09T18:38:15.156Z,2.90
2017-06-09T18:40:43.526Z,9.86
2017-06-09T18:43:11.909Z,4.62
2017-06-09T18:45:40.270Z,7.32
2017-06-09T18:48:08.716Z,5.18
2017-06-09T18:50:37.082Z,2.94
2017-06-09T18:53:05.719Z,3.80
2017-06-09T18:55:34.097Z,4.70
2017-06-09T18:58:02.466Z,5.02
2017-06-09T19:00:30.852Z,5.14
2017-06-09T19:02:59.220Z,3.18
2017-06-09T19:05:27.603Z,2.70
2017-06-09T19:07:56.057Z,5.06
2017-06-09T19:10:24.436Z,4.70
2017-06-09T19:12:52.803Z,6.20
2017-06-09T19:15:21.215Z,7.32
2017-06-09T19:17:49.623Z,6.42
2017-06-09T19:20:17.982Z,5.50
2017-06-09T19:22:46.378Z,10.44
2017-06-09T19:25:14.738Z,5.12
2017-06-09T19:27:43.134Z,11.12
2017-06-09T19:30:11.500Z,32.48
2017-06-09T19:32:39.890Z,21.02
2017-06-09T19:35:08.282Z,34.32
2017-06-09T19:37:36.679Z,13.72
2017-06-09T19:40:05.053Z,74.80
2017-06-09T19:42:33.450Z,61.42
2017-06-09T19:45:01.814Z,72.14
2017-06-09T19:47:30.188Z,59.76
2017-06-09T19:49:58.573Z,26.24
2017-06-09T19:52:26.971Z,23.98
2017-06-09T19:54:55.405Z,11.12
2017-06-09T19:57:23.783Z,31.02
2017-06-09T19:59:52.266Z,13.80
2017-06-09T20:02:20.624Z,5.56
2017-06-09T20:04:49.068Z,4.96
2017-06-09T20:07:17.431Z,5.92
2017-06-09T20:09:45.887Z,40.14
2017-06-09T20:12:14.258Z,19.36
2017-06-09T20:14:44.667Z,8.58
2017-06-09T20:17:13.046Z,6.42
2017-06-09T20:19:40.694Z,5.58
2017-06-09T20:22:09.077Z,5.30
2017-06-09T20:24:37.456Z,9.12
2017-06-09T20:27:05.849Z,7.98
2017-06-09T20:29:34.218Z,15.68
2017-06-09T20:32:02.602Z,9.36
2017-06-09T20:34:30.999Z,14.38
2017-06-09T20:36:59.472Z,6.20
2017-06-09T20:39:27.834Z,8.56
2017-06-09T20:41:56.238Z,6.62
2017-06-09T20:44:24.598Z,6.08
2017-06-09T20:46:52.963Z,6.26
2017-06-09T20:49:21.358Z,5.46
2017-06-09T20:51:50.742Z,4.62
2017-06-09T20:54:19.134Z,6.48
2017-06-09T20:56:47.498Z,5.00
2017-06-09T20:59:15.892Z,6.02
2017-06-09T21:01:44.255Z,4.68
2017-06-09T21:04:12.658Z,4.56
2017-06-09T21:06:41.021Z,4.32
2017-06-09T21:09:09.405Z,5.36
2017-06-09T21:11:37.794Z,4.68
2017-06-09T21:14:06.159Z,5.28
2017-06-09T21:16:34.642Z,4.20
2017-06-09T21:19:03.007Z,4.70
2017-06-09T21:21:31.406Z,6.56
2017-06-09T21:23:59.770Z,4.96
2017-06-09T21:26:28.157Z,5.74
2017-06-09T21:28:56.535Z,4.62
2017-06-09T21:31:24.939Z,3.94
2017-06-09T21:33:53.302Z,5.02
2017-06-09T21:36:21.674Z,4.90
2017-06-09T21:38:50.064Z,4.78
2017-06-09T21:41:18.458Z,4.56
2017-06-09T21:43:46.854Z,7.50
2017-06-09T21:46:15.214Z,5.28
2017-06-09T21:48:43.602Z,5.62
2017-06-09T21:51:11.970Z,6.64
2017-06-09T21:53:40.407Z,4.96
2017-06-09T21:56:08.787Z,4.40
2017-06-09T21:58:37.175Z,5.14
2017-06-09T22:01:05.542Z,8.60
2017-06-09T22:03:33.912Z,12.32
2017-06-09T22:06:01.548Z,6.74
2017-06-09T22:08:29.920Z,10.46
2017-06-09T22:10:58.315Z,7.90
2017-06-09T22:13:26.710Z,29.56
2017-06-09T22:15:55.113Z,13.00
2017-06-09T22:18:23.478Z,13.88
2017-06-09T22:20:51.874Z,18.90
2017-06-09T22:23:20.258Z,93.16
2017-06-09T22:25:48.658Z,82.06
2017-06-09T22:28:17.031Z,33.08
2017-06-09T22:30:45.412Z,72.10
2017-06-09T22:33:13.806Z,76.16
2017-06-09T22:35:42.182Z,126.28
2017-06-09T22:38:10.576Z,85.64
2017-06-09T22:40:38.943Z,13.28
2017-06-09T22:43:08.071Z,13.16
2017-06-09T22:45:36.455Z,6.22
2017-06-09T22:48:04.838Z,6.90
2017-06-09T22:50:33.203Z,4.94
2017-06-09T22:53:01.620Z,6.60
2017-06-09T22:55:29.991Z,8.64
2017-06-09T22:57:58.358Z,5.82
2017-06-09T23:00:26.838Z,5.88
2017-06-09T23:02:55.206Z,5.22
2017-06-09T23:05:23.611Z,4.98
2017-06-09T23:07:51.982Z,5.02
2017-06-09T23:10:20.368Z,4.44
2017-06-09T23:12:48.731Z,5.00
2017-06-09T23:15:17.116Z,7.00
2017-06-09T23:17:45.486Z,4.80
2017-06-09T23:20:13.867Z,4.50
2017-06-09T23:22:47.752Z,8.10
2017-06-09T23:25:16.162Z,4.64
2017-06-09T23:27:44.524Z,4.78
2017-06-09T23:30:12.127Z,4.98
2017-06-09T23:32:40.515Z,4.58
2017-06-09T23:35:08.878Z,4.38
2017-06-09T23:37:37.264Z,4.14
2017-06-09T23:40:05.635Z,4.52
2017-06-09T23:42:34.028Z,4.50
2017-06-09T23:45:02.395Z,4.10
2017-06-09T23:47:30.778Z,4.30
2017-06-09T23:49:59.199Z,5.54
2017-06-09T23:52:27.589Z,5.58
2017-06-09T23:54:55.990Z,4.76
2017-06-09T23:57:24.362Z,6.08
2017-06-09T23:59:52.754Z,5.60
